Time;durP1;ratioP1;P1;durP2;ratioP2;P2;SDS_P1;SDS_P2;PMS_P1;PMS_P2;Temp;Humidity;BMP_temperature;BMP_pressure;BME280_temperature;BME280_humidity;BME280_pressure;Samples;Min_cycle;Max_cycle;Signal;HPM_P1;HPM_P2
2022/04/14 00:00:09;;;;;;;13.98;6.95;;;;;;;18.60;48.41;99898.34;5013815;28;20044;-80
2022/04/14 00:02:36;;;;;;;10.57;7.00;;;;;;;18.75;47.95;99898.31;5005686;28;20041;-80
2022/04/14 00:05:03;;;;;;;14.05;6.28;;;;;;;18.75;47.66;99892.94;5018755;28;20046;-80
2022/04/14 00:07:30;;;;;;;12.48;6.20;;;;;;;18.72;47.89;99894.13;5022896;28;20149;-80
2022/04/14 00:09:57;;;;;;;11.20;6.18;;;;;;;18.71;47.96;99899.72;5024971;28;20404;-80
2022/04/14 00:12:25;;;;;;;12.18;6.97;;;;;;;18.68;47.84;99895.56;5007370;28;20059;-80
2022/04/14 00:14:51;;;;;;;11.25;6.15;;;;;;;18.65;48.19;99896.75;5027209;28;20045;-80
2022/04/14 00:17:18;;;;;;;11.68;6.07;;;;;;;18.64;47.96;99889.69;5026906;28;20116;-80
2022/04/14 00:19:45;;;;;;;12.98;5.93;;;;;;;18.62;47.82;99894.44;5056104;28;20535;-80
2022/04/14 00:22:12;;;;;;;13.43;6.28;;;;;;;18.60;48.05;99892.97;5032910;28;20059;-80
2022/04/14 00:24:39;;;;;;;9.75;5.97;;;;;;;18.58;47.98;99889.63;5034411;28;20056;-80
2022/04/14 00:27:05;;;;;;;11.30;6.00;;;;;;;18.55;48.08;99888.16;5031221;28;20045;-80
2022/04/14 00:29:33;;;;;;;12.18;6.35;;;;;;;18.54;47.82;99896.38;5055038;28;20053;-80
2022/04/14 00:31:59;;;;;;;13.30;5.57;;;;;;;18.49;47.95;99891.56;5028714;28;20129;-80
2022/04/14 00:34:28;;;;;;;11.20;6.57;;;;;;;18.44;47.88;99902.03;5008540;28;20049;-80
2022/04/14 00:36:55;;;;;;;11.38;6.65;;;;;;;18.44;47.99;99902.03;5047998;28;20041;-80
2022/04/14 00:39:22;;;;;;;9.10;5.65;;;;;;;18.41;48.10;99900.56;5013870;28;20041;-80
2022/04/14 00:41:48;;;;;;;12.02;6.45;;;;;;;18.39;48.16;99901.75;5025544;28;20095;-80
2022/04/14 00:44:15;;;;;;;11.52;6.25;;;;;;;18.37;48.28;99898.44;5010850;28;20046;-80
2022/04/14 00:46:42;;;;;;;11.13;5.82;;;;;;;18.36;48.33;99902.97;5043491;28;20045;-80
2022/04/14 00:49:09;;;;;;;9.52;5.63;;;;;;;18.33;48.31;99911.41;5037868;28;20050;-80
2022/04/14 00:51:36;;;;;;;11.68;6.57;;;;;;;18.30;48.22;99905.56;5065827;28;20665;-80
2022/04/14 00:54:02;;;;;;;17.17;6.63;;;;;;;18.28;48.23;99908.44;5061962;28;20486;-80
2022/04/14 00:56:29;;;;;;;13.15;6.68;;;;;;;18.25;48.42;99914.19;5034655;28;20137;-80
2022/04/14 00:58:56;;;;;;;12.05;6.00;;;;;;;18.22;48.42;99909.19;5029801;28;20584;-80
2022/04/14 01:01:23;;;;;;;8.93;6.32;;;;;;;18.20;48.41;99911.19;5025427;28;20042;-80
2022/04/14 01:03:51;;;;;;;15.25;6.35;;;;;;;18.20;48.40;99916.59;5025118;28;20080;-80
2022/04/14 01:06:20;;;;;;;11.10;6.18;;;;;;;18.17;48.43;99914.25;5025942;28;20053;-80
2022/04/14 01:11:34;;;;;;;8.85;5.35;;;;;;;18.12;48.51;99916.66;4981461;28;20040;-80
2022/04/14 01:14:01;;;;;;;11.90;6.35;;;;;;;18.10;48.43;99916.84;5030123;28;20488;-80
2022/04/14 01:16:27;;;;;;;12.90;6.07;;;;;;;18.08;48.47;99920.72;5018463;28;20040;-80
2022/04/14 01:18:54;;;;;;;10.93;6.55;;;;;;;18.05;48.57;99921.09;5015050;28;20033;-80
2022/04/14 01:21:21;;;;;;;10.63;5.45;;;;;;;18.03;48.50;99921.25;4988594;28;20392;-80
2022/04/14 01:23:49;;;;;;;11.52;5.60;;;;;;;17.99;48.64;99923.50;5014202;28;20123;-80
2022/04/14 01:26:16;;;;;;;8.35;5.32;;;;;;;17.97;48.59;99924.69;5051497;28;20065;-80
2022/04/14 01:28:43;;;;;;;10.20;5.38;;;;;;;17.94;48.63;99928.56;5035038;28;20042;-80
2022/04/14 01:31:09;;;;;;;11.05;5.60;;;;;;;17.93;48.78;99926.88;5031743;28;20044;-80
2022/04/14 01:33:36;;;;;;;17.13;6.75;;;;;;;17.93;48.76;99932.25;5016706;28;20493;-80
2022/04/14 01:36:05;;;;;;;12.95;6.00;;;;;;;17.91;49.04;99936.16;5043733;28;20099;-80
2022/04/14 01:38:32;;;;;;;12.77;6.05;;;;;;;17.90;48.97;99934.50;5030256;28;20045;-81
2022/04/14 01:40:59;;;;;;;12.85;5.75;;;;;;;17.87;49.11;99943.75;5045220;28;20071;-81
2022/04/14 01:43:26;;;;;;;11.93;5.90;;;;;;;17.85;49.29;99947.63;5027983;28;20042;-82
2022/04/14 01:45:52;;;;;;;15.27;5.72;;;;;;;17.83;49.12;99945.09;5040818;28;21046;-80
2022/04/14 01:48:19;;;;;;;13.60;6.32;;;;;;;17.77;49.11;99957.38;5014837;28;20037;-81
2022/04/14 01:50:46;;;;;;;14.43;6.35;;;;;;;17.75;49.24;99953.19;5004297;28;20331;-81
2022/04/14 01:53:13;;;;;;;10.40;7.20;;;;;;;17.71;49.03;99949.22;5044667;28;20162;-81
2022/04/14 01:55:39;;;;;;;12.57;5.82;;;;;;;17.68;49.10;99945.03;5011043;28;21071;-82
2022/04/14 01:58:06;;;;;;;11.82;6.18;;;;;;;17.67;49.26;99955.94;5011675;28;20049;-82
2022/04/14 02:00:33;;;;;;;11.35;6.75;;;;;;;17.64;49.08;99959.00;5006515;28;20099;-80
2022/04/14 02:03:00;;;;;;;13.68;6.80;;;;;;;17.61;49.13;99967.41;5049259;28;20063;-82
2022/04/14 02:05:27;;;;;;;14.88;7.65;;;;;;;17.56;49.01;99963.41;5032552;28;20056;-81
2022/04/14 02:07:54;;;;;;;12.82;6.57;;;;;;;17.52;48.94;99961.25;5029596;28;20040;-82
2022/04/14 02:10:20;;;;;;;12.65;6.75;;;;;;;17.50;49.09;99957.91;4992349;28;20049;-82
2022/04/14 02:12:47;;;;;;;14.77;6.72;;;;;;;17.50;49.06;99965.97;5036132;28;20735;-81
2022/04/14 02:15:14;;;;;;;17.45;6.78;;;;;;;17.49;49.22;99972.34;5026202;28;20409;-81
2022/04/14 02:17:41;;;;;;;16.70;7.35;;;;;;;17.46;49.16;99962.81;5015655;28;20625;-81
2022/04/14 02:20:08;;;;;;;11.52;7.22;;;;;;;17.46;49.27;99965.50;5020569;28;20399;-81
2022/04/14 02:22:42;;;;;;;11.38;6.32;;;;;;;17.40;49.66;99971.53;5008478;28;20045;-82
2022/04/14 02:25:09;;;;;;;18.50;6.57;;;;;;;17.43;49.27;99971.22;4992939;28;20080;-81
2022/04/14 02:27:56;;;;;;;14.80;6.05;;;;;;;17.40;49.50;99971.53;4980404;28;20095;-82
2022/04/14 02:30:23;;;;;;;10.27;6.40;;;;;;;17.40;49.21;99970.72;5011460;28;20042;-82
2022/04/14 02:32:50;;;;;;;12.18;5.63;;;;;;;17.36;49.31;99973.75;5028508;28;20052;-81
2022/04/14 02:35:16;;;;;;;11.68;6.15;;;;;;;17.34;49.27;99970.41;5043217;28;20493;-81
2022/04/14 02:37:43;;;;;;;8.70;5.13;;;;;;;17.32;49.60;99969.75;5018531;28;20046;-81
2022/04/14 02:40:10;;;;;;;11.10;5.28;;;;;;;17.31;49.44;99969.94;5000825;28;20514;-81
2022/04/14 02:42:37;;;;;;;13.48;5.53;;;;;;;17.27;49.49;99974.81;5000313;28;20087;-82
2022/04/14 02:45:04;;;;;;;11.23;5.47;;;;;;;17.23;49.33;99972.66;5006939;28;20497;-81
2022/04/14 02:47:30;;;;;;;12.10;6.22;;;;;;;17.18;49.58;99975.03;4994475;28;20181;-81
2022/04/14 02:49:57;;;;;;;12.65;5.80;;;;;;;17.16;49.54;99975.22;5035499;28;20484;-82
2022/04/14 02:52:24;;;;;;;9.38;5.25;;;;;;;17.10;49.68;99966.00;5038531;28;20045;-81
2022/04/14 02:54:52;;;;;;;8.70;5.40;;;;;;;17.10;49.48;99975.91;5033503;28;20400;-81
2022/04/14 02:57:23;;;;;;;10.13;5.95;;;;;;;17.03;49.73;99969.56;5022784;28;20123;-81
2022/04/14 02:59:50;;;;;;;13.75;6.22;;;;;;;17.01;49.75;99972.41;4979141;28;20500;-81
2022/04/14 03:02:16;;;;;;;12.50;5.88;;;;;;;17.00;49.77;99970.75;5040755;28;20120;-81
2022/04/14 03:04:43;;;;;;;10.15;6.63;;;;;;;16.98;49.82;99980.81;5042637;28;20041;-81
2022/04/14 03:07:10;;;;;;;18.38;5.70;;;;;;;16.93;49.71;99981.34;5014041;28;20041;-81
2022/04/14 03:09:37;;;;;;;9.65;6.65;;;;;;;16.89;49.83;99988.06;5034125;28;20051;-81
2022/04/14 03:12:04;;;;;;;11.65;6.10;;;;;;;16.85;49.96;99988.59;5010934;28;20048;-81
2022/04/14 03:14:30;;;;;;;14.80;6.05;;;;;;;16.82;49.92;99987.09;4990534;28;20413;-81
2022/04/14 03:17:05;;;;;;;9.57;6.07;;;;;;;16.81;49.96;99987.25;4999089;28;20092;-81
2022/04/14 03:19:32;;;;;;;10.10;6.50;;;;;;;16.80;49.95;99986.41;5018222;28;20033;-82
2022/04/14 03:21:59;;;;;;;12.02;5.85;;;;;;;16.78;49.97;99988.44;5011449;28;20056;-81
2022/04/14 03:24:26;;;;;;;11.80;6.22;;;;;;;16.77;49.96;99977.84;5042436;28;20037;-81
2022/04/14 03:26:53;;;;;;;9.15;5.72;;;;;;;16.74;49.85;99976.34;5029793;28;20049;-82
2022/04/14 03:29:19;;;;;;;11.98;6.05;;;;;;;16.74;50.04;99987.09;5031135;28;20060;-82
2022/04/14 03:31:46;;;;;;;11.60;7.15;;;;;;;16.71;49.92;99988.25;5012812;28;20505;-81
2022/04/14 03:35:04;;;;;;;11.77;6.03;;;;;;;16.50;50.68;99982.59;4998691;28;20116;-82
2022/04/14 03:37:32;;;;;;;8.75;5.45;;;;;;;16.63;49.70;99984.75;4962935;28;20041;-82
2022/04/14 03:39:59;;;;;;;12.23;5.55;;;;;;;16.61;49.98;99990.31;5034757;28;20096;-81
2022/04/14 03:42:26;;;;;;;8.70;5.50;;;;;;;16.60;50.02;99996.66;5028374;28;20037;-81
2022/04/14 03:44:53;;;;;;;11.88;5.38;;;;;;;16.53;50.39;99990.28;5045598;28;20037;-81
2022/04/14 03:47:27;;;;;;;9.77;5.22;;;;;;;16.50;50.43;99986.09;5037975;28;20045;-81
2022/04/14 03:49:54;;;;;;;6.57;5.43;;;;;;;16.50;50.30;99982.59;5018447;28;20153;-81
2022/04/14 03:52:21;;;;;;;10.25;5.63;;;;;;;16.46;50.35;99986.63;5009143;28;20113;-81
2022/04/14 03:54:47;;;;;;;12.00;6.10;;;;;;;16.44;50.27;99992.16;5037839;28;20066;-81
2022/04/14 03:57:15;;;;;;;9.48;5.57;;;;;;;16.40;50.36;99996.19;5025634;28;20718;-82
2022/04/14 03:59:42;;;;;;;12.65;5.53;;;;;;;16.40;50.70;99989.97;5019363;28;20050;-81
2022/04/14 04:02:08;;;;;;;14.88;5.65;;;;;;;16.40;50.47;99998.84;5013805;28;20140;-82
2022/04/14 04:04:35;;;;;;;11.48;6.15;;;;;;;16.39;50.61;99996.38;5011986;28;20068;-84
2022/04/14 04:07:04;;;;;;;11.73;6.13;;;;;;;16.38;50.42;100006.22;5021519;28;20042;-84
2022/04/14 04:09:35;;;;;;;10.85;5.57;;;;;;;16.37;50.53;100007.25;5015280;28;20625;-83
2022/04/14 04:12:01;;;;;;;10.50;6.53;;;;;;;16.34;50.68;100015.63;5014648;28;20487;-83
2022/04/14 04:14:28;;;;;;;10.30;6.13;;;;;;;16.34;50.65;100012.13;5007943;28;20057;-84
2022/04/14 04:17:00;;;;;;;11.52;5.65;;;;;;;16.30;50.69;100008.09;5006620;28;20128;-84
2022/04/14 04:19:26;;;;;;;17.40;5.95;;;;;;;16.27;50.80;100017.31;5010747;28;20467;-84
2022/04/14 04:21:53;;;;;;;10.50;5.78;;;;;;;16.24;50.70;100010.44;4999655;28;20042;-83
2022/04/14 04:24:21;;;;;;;9.82;6.28;;;;;;;16.23;50.70;100026.66;5028692;28;20048;-77
2022/04/14 04:26:48;;;;;;;9.75;6.43;;;;;;;16.21;50.88;100026.84;5035864;28;20045;-77
2022/04/14 04:29:14;;;;;;;11.23;6.15;;;;;;;16.19;50.96;100034.22;5010303;28;20546;-78
2022/04/14 04:31:41;;;;;;;10.98;6.53;;;;;;;16.18;50.94;100031.69;4983727;28;20053;-78
2022/04/14 04:34:08;;;;;;;12.60;6.30;;;;;;;16.17;51.07;100030.84;4997492;28;20097;-78
2022/04/14 04:36:34;;;;;;;10.73;5.57;;;;;;;16.16;51.18;100036.41;5035114;28;20045;-78
2022/04/14 04:39:01;;;;;;;14.48;6.72;;;;;;;16.14;51.04;100036.56;5007459;28;20060;-77
2022/04/14 04:41:29;;;;;;;14.50;6.30;;;;;;;16.11;51.34;100041.41;5010864;28;20145;-77
2022/04/14 04:43:55;;;;;;;15.23;5.90;;;;;;;16.08;51.43;100041.72;5036795;28;20065;-78
2022/04/14 04:46:22;;;;;;;8.45;5.78;;;;;;;16.05;51.30;100046.44;5020732;28;20045;-77
2022/04/14 04:48:49;;;;;;;11.98;6.40;;;;;;;16.03;51.34;100048.44;4994136;28;20041;-78
2022/04/14 04:51:16;;;;;;;11.63;6.18;;;;;;;16.03;51.56;100051.13;5038755;28;20056;-77
2022/04/14 04:53:43;;;;;;;15.20;6.05;;;;;;;16.03;51.70;100053.81;5011035;28;20423;-78
2022/04/14 04:56:10;;;;;;;10.38;6.28;;;;;;;16.03;51.73;100058.31;5027875;28;20037;-77
2022/04/14 04:58:37;;;;;;;18.50;6.30;;;;;;;15.97;51.71;100065.16;5045249;28;20185;-80
2022/04/14 05:01:03;;;;;;;14.48;6.90;;;;;;;15.94;51.47;100060.13;5040848;28;20046;-77
2022/04/14 05:03:30;;;;;;;9.15;6.25;;;;;;;15.92;51.69;100064.81;5024815;28;20038;-77
2022/04/14 05:05:57;;;;;;;10.60;6.18;;;;;;;15.87;51.54;100063.63;5028598;28;20412;-78
2022/04/14 05:08:24;;;;;;;13.05;6.82;;;;;;;15.82;51.71;100070.34;5049454;28;20048;-77
2022/04/14 05:10:50;;;;;;;10.05;6.75;;;;;;;15.82;51.78;100074.84;5026987;28;20120;-78
2022/04/14 05:13:17;;;;;;;9.55;5.82;;;;;;;15.83;52.09;100074.69;4992533;28;20077;-77
2022/04/14 05:15:44;;;;;;;11.85;6.85;;;;;;;15.86;52.00;100076.19;5028728;28;20041;-77
2022/04/14 05:18:11;;;;;;;12.07;6.43;;;;;;;15.86;51.98;100073.53;5047446;28;20045;-78
2022/04/14 05:20:39;;;;;;;14.57;6.32;;;;;;;15.86;51.99;100072.69;5026513;28;20052;-77
2022/04/14 05:23:10;;;;;;;11.82;6.00;;;;;;;15.83;52.35;100074.69;5044157;28;20052;-77
2022/04/14 05:25:39;;;;;;;11.32;6.85;;;;;;;15.83;52.17;100080.03;5025536;28;20045;-78
2022/04/14 05:28:05;;;;;;;15.07;7.03;;;;;;;15.84;52.09;100087.06;5013984;28;20049;-78
2022/04/14 05:30:32;;;;;;;14.70;7.43;;;;;;;15.83;52.33;100095.28;5026052;28;20685;-77
2022/04/14 05:32:59;;;;;;;15.13;6.30;;;;;;;15.80;52.27;100098.28;4981355;28;20599;-77
2022/04/14 05:35:27;;;;;;;12.75;6.88;;;;;;;15.75;52.74;100093.41;5026736;28;20434;-78
2022/04/14 05:37:54;;;;;;;15.48;7.10;;;;;;;15.73;52.73;100102.59;5011271;28;20087;-77
2022/04/14 05:40:21;;;;;;;11.20;7.00;;;;;;;15.71;52.45;100096.56;5044998;28;20493;-77
2022/04/14 05:42:48;;;;;;;11.63;7.18;;;;;;;15.68;52.73;100100.38;4986634;28;20517;-78
2022/04/14 05:45:15;;;;;;;10.80;7.43;;;;;;;15.68;52.94;100100.38;4996738;28;20097;-79
2022/04/14 05:47:42;;;;;;;14.15;7.53;;;;;;;15.67;52.99;100111.25;5027855;28;20041;-77
2022/04/14 05:50:09;;;;;;;14.25;7.43;;;;;;;15.66;52.57;100099.69;5036575;28;20068;-77
2022/04/14 05:52:36;;;;;;;21.23;8.30;;;;;;;15.62;52.46;100109.91;5011480;28;20389;-77
2022/04/14 05:55:03;;;;;;;17.08;8.10;;;;;;;15.60;52.44;100101.19;5024249;28;20492;-77
2022/04/14 05:57:30;;;;;;;14.98;8.40;;;;;;;15.61;52.49;100104.69;5012520;28;20060;-77
2022/04/14 05:59:57;;;;;;;21.27;8.43;;;;;;;15.61;52.47;100107.38;5007045;28;20041;-78
2022/04/14 06:02:24;;;;;;;21.70;8.48;;;;;;;15.61;52.48;100102.03;5029582;28;20052;-77
2022/04/14 06:04:52;;;;;;;17.10;9.07;;;;;;;15.66;52.53;100098.88;5017628;28;20051;-77
2022/04/14 06:07:19;;;;;;;19.30;8.20;;;;;;;15.66;52.76;100107.72;5014381;28;20045;-79
2022/04/14 06:09:45;;;;;;;14.30;8.15;;;;;;;15.67;52.82;100104.03;5024559;28;20045;-78
2022/04/14 06:12:12;;;;;;;18.25;8.05;;;;;;;15.68;52.58;100102.22;4993486;28;20048;-79
2022/04/14 06:14:48;;;;;;;23.08;9.00;;;;;;;15.69;52.74;100104.75;5006916;28;20408;-78
2022/04/14 06:17:15;;;;;;;16.77;8.88;;;;;;;15.70;52.79;100101.09;5022832;28;20046;-79
2022/04/14 06:19:42;;;;;;;14.20;8.80;;;;;;;15.71;53.21;100108.13;5032675;28;20041;-78
2022/04/14 06:22:09;;;;;;;18.05;8.68;;;;;;;15.72;53.44;100107.13;4997325;28;20053;-79
2022/04/14 06:24:35;;;;;;;12.30;8.45;;;;;;;15.74;53.16;100104.28;5025919;28;20045;-79
2022/04/14 06:27:02;;;;;;;20.08;9.07;;;;;;;15.73;53.24;100103.44;5039443;28;20049;-79
2022/04/14 06:29:30;;;;;;;21.85;9.43;;;;;;;15.73;53.59;100100.75;5038888;28;20416;-79
2022/04/14 06:31:57;;;;;;;14.77;8.23;;;;;;;15.75;53.64;100097.94;5048009;28;20044;-79
2022/04/14 06:34:24;;;;;;;20.98;8.50;;;;;;;15.77;53.91;100102.13;5044509;28;20042;-79
2022/04/14 06:36:51;;;;;;;15.60;8.25;;;;;;;15.80;53.81;100103.63;5031814;28;20060;-79
2022/04/14 06:39:17;;;;;;;17.30;8.68;;;;;;;15.81;53.92;100110.66;5029081;28;20042;-79
2022/04/14 06:41:45;;;;;;;21.45;9.20;;;;;;;15.82;54.00;100107.84;5041378;28;20046;-79
2022/04/14 06:44:12;;;;;;;16.55;8.57;;;;;;;15.84;53.87;100110.31;4978585;28;20053;-79
2022/04/14 06:46:39;;;;;;;13.95;8.13;;;;;;;15.83;54.19;100114.03;4994627;28;20049;-79
2022/04/14 06:49:06;;;;;;;16.80;9.07;;;;;;;15.82;54.06;100110.50;5001155;28;20049;-79
2022/04/14 06:51:33;;;;;;;17.10;9.30;;;;;;;15.84;54.20;100110.31;5034281;28;20049;-79
2022/04/14 06:53:59;;;;;;;18.95;9.15;;;;;;;15.79;54.34;100108.13;5023669;28;20054;-79
2022/04/14 06:56:26;;;;;;;20.48;8.82;;;;;;;15.80;54.33;100125.91;5011492;28;20060;-80
2022/04/14 06:58:53;;;;;;;19.42;8.82;;;;;;;15.78;54.77;100119.03;5009652;28;20405;-78
2022/04/14 07:01:20;;;;;;;23.20;9.32;;;;;;;15.83;54.64;100114.84;5029281;28;20042;-79
2022/04/14 07:03:47;;;;;;;16.75;10.10;;;;;;;15.88;54.81;100121.56;5031153;28;20057;-79
2022/04/14 07:06:16;;;;;;;16.40;9.70;;;;;;;15.87;55.02;100120.69;5013093;28;20053;-80
2022/04/14 07:08:43;;;;;;;23.33;9.98;;;;;;;15.92;55.04;100123.72;5011152;28;20100;-78
2022/04/14 07:11:12;;;;;;;17.00;9.43;;;;;;;15.83;55.52;100122.88;5028500;28;20157;-79
2022/04/14 07:13:39;;;;;;;14.25;8.65;;;;;;;15.91;55.39;100122.06;5027755;28;20055;-79
2022/04/14 07:16:06;;;;;;;16.73;9.40;;;;;;;15.93;55.88;100128.09;4995126;28;20105;-80
2022/04/14 07:18:34;;;;;;;18.25;9.63;;;;;;;15.89;56.11;100139.31;5014368;28;20642;-79
2022/04/14 07:21:01;;;;;;;18.25;8.88;;;;;;;15.92;56.03;100131.75;5029095;28;20051;-79
2022/04/14 07:23:28;;;;;;;16.55;9.10;;;;;;;15.96;56.14;100127.78;5012325;28;20042;-80
2022/04/14 07:26:00;;;;;;;18.27;10.55;;;;;;;15.86;57.29;100132.44;5024208;28;20053;-79
2022/04/14 07:28:28;;;;;;;17.65;9.30;;;;;;;15.87;57.49;100130.59;4981748;28;20051;-79
2022/04/14 07:30:56;;;;;;;16.25;9.10;;;;;;;15.99;56.98;100132.78;4979132;28;20042;-78
2022/04/14 07:33:23;;;;;;;18.27;9.18;;;;;;;16.03;57.17;100136.84;5026782;28;20125;-79
2022/04/14 07:35:51;;;;;;;18.40;10.25;;;;;;;16.05;56.81;100137.50;5004785;28;20053;-79
2022/04/14 07:38:19;;;;;;;15.68;8.82;;;;;;;16.09;56.95;100142.53;4980434;28;20486;-79
2022/04/14 07:40:46;;;;;;;19.83;9.65;;;;;;;16.14;56.75;100142.88;5003163;28;20766;-79
2022/04/14 07:43:13;;;;;;;19.45;10.45;;;;;;;16.14;56.80;100134.84;5033317;28;21481;-79
2022/04/14 07:45:42;;;;;;;21.42;10.32;;;;;;;16.19;57.19;100144.06;4990346;28;20053;-79
2022/04/14 07:48:09;;;;;;;20.23;10.98;;;;;;;16.20;56.98;100142.22;5026445;28;20056;-80
2022/04/14 07:50:36;;;;;;;16.63;10.38;;;;;;;16.22;57.18;100154.44;5029068;28;20051;-79
2022/04/14 07:53:03;;;;;;;19.77;10.15;;;;;;;16.25;57.50;100153.28;4993576;28;20051;-81
2022/04/14 07:55:32;;;;;;;22.20;10.70;;;;;;;16.21;57.93;100150.09;5005780;28;20057;-81
2022/04/14 07:58:07;;;;;;;17.67;10.80;;;;;;;16.20;58.24;100152.94;4990802;28;20076;-80
2022/04/14 08:00:38;;;;;;;18.55;10.85;;;;;;;16.26;58.04;100154.97;5001342;28;20369;-79
2022/04/14 08:03:06;;;;;;;18.73;12.07;;;;;;;16.30;58.32;100153.63;5004702;28;20097;-79
2022/04/14 08:05:38;;;;;;;21.05;10.85;;;;;;;16.33;58.25;100149.78;5002880;28;20050;-79
2022/04/14 08:08:09;;;;;;;22.73;11.98;;;;;;;16.39;58.20;100154.50;4999322;28;20648;-79
2022/04/14 08:10:37;;;;;;;20.95;11.20;;;;;;;16.38;58.51;100156.31;4990097;28;20089;-80
2022/04/14 08:13:04;;;;;;;26.58;12.88;;;;;;;16.43;58.89;100156.66;4993366;28;20559;-79
2022/04/14 08:15:31;;;;;;;22.20;13.20;;;;;;;16.50;59.06;100160.34;5003598;28;20144;-79
2022/04/14 08:17:59;;;;;;;33.10;13.30;;;;;;;16.53;58.75;100161.84;5011323;28;20134;-79
2022/04/14 08:20:26;;;;;;;27.98;14.18;;;;;;;16.57;58.97;100168.56;4998710;28;20037;-78
2022/04/14 08:22:59;;;;;;;24.35;13.10;;;;;;;16.54;59.38;100168.06;5032119;28;20057;-79
2022/04/14 08:25:35;;;;;;;20.58;13.93;;;;;;;16.51;59.61;100163.84;5001040;28;20042;-79
2022/04/14 08:28:03;;;;;;;27.48;15.23;;;;;;;16.66;59.60;100167.59;4998143;28;20073;-78
2022/04/14 08:30:31;;;;;;;27.85;14.50;;;;;;;16.60;59.76;100162.03;4982555;28;20073;-79
2022/04/14 08:33:00;;;;;;;22.92;13.45;;;;;;;16.59;59.95;100163.88;5026647;28;20485;-78
2022/04/14 08:35:31;;;;;;;29.33;14.95;;;;;;;16.60;59.72;100164.72;4993834;28;20049;-79
2022/04/14 08:37:57;;;;;;;26.85;14.32;;;;;;;16.61;60.12;100155.66;5009317;28;20127;-79
2022/04/14 08:40:28;;;;;;;27.88;13.68;;;;;;;16.60;60.05;100157.50;5002834;28;20488;-78
2022/04/14 08:43:08;;;;;;;23.45;13.07;;;;;;;16.63;60.20;100167.91;4978842;28;20045;-78
2022/04/14 08:45:44;;;;;;;27.70;13.95;;;;;;;16.62;60.52;100166.22;4968401;28;20041;-78
2022/04/14 08:48:12;;;;;;;24.75;13.82;;;;;;;16.70;60.74;100162.72;4943561;28;20046;-78
2022/04/14 08:50:39;;;;;;;26.35;13.35;;;;;;;16.71;60.95;100162.56;5028560;28;20073;-78
2022/04/14 08:53:07;;;;;;;30.65;15.02;;;;;;;16.78;61.22;100168.09;5007908;28;20571;-78
2022/04/14 08:55:34;;;;;;;25.40;14.50;;;;;;;16.79;61.23;100163.56;5033446;28;20061;-78
2022/04/14 08:58:00;;;;;;;30.58;15.13;;;;;;;16.80;61.11;100166.09;5030627;28;20052;-79
2022/04/14 09:00:27;;;;;;;25.25;14.95;;;;;;;16.84;60.93;100163.91;5008497;28;20053;-78
2022/04/14 09:02:55;;;;;;;26.30;14.68;;;;;;;16.85;60.95;100170.97;5034708;28;20047;-79
2022/04/14 09:05:22;;;;;;;28.58;15.43;;;;;;;16.90;61.42;100163.25;5009030;28;20057;-79
2022/04/14 09:07:50;;;;;;;28.73;14.65;;;;;;;16.93;61.28;100166.41;5016538;28;20476;-78
2022/04/14 09:10:17;;;;;;;28.58;15.02;;;;;;;16.98;61.50;100163.25;5015676;28;20065;-78
2022/04/14 09:12:46;;;;;;;32.72;16.15;;;;;;;17.01;61.24;100157.53;5012431;28;20037;-79
2022/04/14 09:15:12;;;;;;;28.70;14.43;;;;;;;17.04;60.41;100159.88;5011610;28;20049;-78
2022/04/14 09:17:39;;;;;;;28.00;14.70;;;;;;;17.05;60.14;100160.72;5013007;28;20048;-78
2022/04/14 09:20:31;;;;;;;28.88;14.40;;;;;;;16.94;60.12;100156.53;5023941;28;20076;-78
2022/04/14 09:23:20;;;;;;;32.60;14.77;;;;;;;16.98;60.93;100165.09;5011208;28;20049;-78
2022/04/14 09:25:49;;;;;;;26.13;13.85;;;;;;;17.11;60.54;100152.81;4994862;28;20045;-78
2022/04/14 09:28:20;;;;;;;24.60;13.25;;;;;;;17.11;59.86;100155.50;5025742;28;20057;-79
2022/04/14 09:30:58;;;;;;;21.90;13.02;;;;;;;17.03;59.72;100154.69;4997666;28;20049;-78
2022/04/14 09:33:26;;;;;;;25.33;13.20;;;;;;;17.11;59.92;100158.19;5016528;28;20076;-78
2022/04/14 09:36:15;;;;;;;27.88;13.15;;;;;;;17.09;60.15;100159.34;5012446;28;20057;-78
2022/04/14 09:39:02;;;;;;;25.27;11.70;;;;;;;17.03;60.32;100152.84;5012248;28;20382;-78
2022/04/14 09:41:39;;;;;;;26.58;12.60;;;;;;;17.16;60.03;100159.53;4975877;28;20096;-78
2022/04/14 09:44:09;;;;;;;28.63;14.25;;;;;;;17.24;59.96;100152.28;4983110;28;20038;-79
2022/04/14 09:46:37;;;;;;;25.58;13.57;;;;;;;17.24;60.11;100159.50;5025570;28;20076;-78
2022/04/14 09:49:09;;;;;;;24.02;13.48;;;;;;;17.19;60.35;100151.13;5012205;28;20076;-78
2022/04/14 09:51:40;;;;;;;27.45;14.60;;;;;;;17.27;60.40;100159.16;5034658;28;20477;-79
2022/04/14 09:54:15;;;;;;;25.08;12.45;;;;;;;17.26;60.87;100149.44;5016380;28;20046;-79
2022/04/14 09:56:48;;;;;;;22.20;13.77;;;;;;;17.30;60.36;100148.94;5022353;28;20488;-78
2022/04/14 09:59:17;;;;;;;23.00;14.75;;;;;;;17.30;60.40;100150.75;5012422;28;20042;-79
2022/04/14 10:01:44;;;;;;;17.83;12.32;;;;;;;17.31;60.17;100153.28;5030336;28;20048;-79
2022/04/14 10:04:31;;;;;;;23.25;13.60;;;;;;;17.24;60.45;100154.13;4999119;28;20064;-78
2022/04/14 10:07:30;;;;;;;21.05;12.77;;;;;;;17.21;60.41;100151.81;4970067;28;21485;-79
2022/04/14 10:09:57;;;;;;;21.98;12.63;;;;;;;17.34;60.13;100149.41;4941375;28;20053;-78
2022/04/14 10:12:24;;;;;;;26.90;12.43;;;;;;;17.40;60.29;100148.72;5004289;28;20048;-78
2022/04/14 10:14:56;;;;;;;26.38;13.43;;;;;;;17.41;60.53;100139.66;5021233;28;20356;-78
2022/04/14 10:17:25;;;;;;;23.25;11.45;;;;;;;17.46;60.89;100148.03;5022462;28;20060;-79
2022/04/14 10:19:52;;;;;;;21.40;12.02;;;;;;;17.52;60.64;100144.66;4988817;28;20060;-79
2022/04/14 10:22:19;;;;;;;24.45;12.80;;;;;;;17.56;60.82;100143.31;5008256;28;20057;-79
2022/04/14 10:24:47;;;;;;;25.25;13.48;;;;;;;17.59;60.19;100142.13;5005314;28;20052;-78
2022/04/14 10:27:14;;;;;;;20.25;12.60;;;;;;;17.60;60.15;100137.59;5007603;28;20041;-79
2022/04/14 10:29:41;;;;;;;22.77;12.93;;;;;;;17.60;60.08;100140.28;4994855;28;20057;-80
2022/04/14 10:32:08;;;;;;;26.80;12.32;;;;;;;17.61;60.57;100141.97;5024249;28;20373;-78
2022/04/14 10:34:35;;;;;;;18.95;11.43;;;;;;;17.65;59.91;100145.97;4998174;28;20042;-78
2022/04/14 10:37:03;;;;;;;25.45;11.93;;;;;;;17.68;60.30;100143.78;4987679;28;20046;-78
2022/04/14 10:39:31;;;;;;;18.73;12.73;;;;;;;17.71;60.35;100137.22;4971175;28;20100;-78
2022/04/14 10:42:00;;;;;;;26.15;14.70;;;;;;;17.73;60.44;100143.22;4995882;28;20058;-78
2022/04/14 10:44:55;;;;;;;23.45;13.50;;;;;;;17.64;60.62;100136.25;5035979;28;20201;-78
2022/04/14 10:47:57;;;;;;;27.58;14.68;;;;;;;17.64;60.82;100138.91;4977611;28;20382;-79
2022/04/14 10:50:29;;;;;;;27.90;14.40;;;;;;;17.78;60.58;100136.34;4919880;28;20093;-79
2022/04/14 10:53:03;;;;;;;20.45;13.05;;;;;;;17.72;60.77;100141.56;5029031;28;20063;-79
2022/04/14 10:55:38;;;;;;;26.27;14.25;;;;;;;17.75;60.91;100133.16;5036803;28;20049;-78
2022/04/14 10:58:05;;;;;;;25.48;12.95;;;;;;;17.78;60.88;100138.16;4986166;28;20050;-78
2022/04/14 11:00:34;;;;;;;25.30;13.43;;;;;;;17.79;60.78;100137.19;4982368;28;20116;-79
2022/04/14 11:03:08;;;;;;;20.60;13.10;;;;;;;17.79;61.00;100131.81;5000169;28;20045;-79
2022/04/14 11:05:48;;;;;;;25.65;13.60;;;;;;;17.79;61.34;100138.03;4999895;28;20052;-79
2022/04/14 11:08:21;;;;;;;26.17;13.88;;;;;;;17.78;60.94;100141.72;5010185;28;20044;-76
2022/04/14 11:10:54;;;;;;;30.80;16.50;;;;;;;17.81;61.11;100137.88;5018661;28;20133;-78
2022/04/14 11:13:21;;;;;;;38.22;15.65;;;;;;;17.85;61.22;100136.50;5021949;28;20462;-76
2022/04/14 11:15:48;;;;;;;28.25;16.45;;;;;;;17.86;60.71;100137.31;5009673;28;20712;-79
2022/04/14 11:18:16;;;;;;;31.63;16.75;;;;;;;17.86;60.79;100137.31;5013125;28;20037;-77
2022/04/14 11:20:48;;;;;;;33.92;19.00;;;;;;;17.89;61.06;100137.00;5023834;28;20061;-76
2022/04/14 11:23:15;;;;;;;33.33;19.20;;;;;;;17.88;61.12;100136.13;5027123;28;20098;-78
2022/04/14 11:25:49;;;;;;;35.10;20.13;;;;;;;17.95;61.24;100141.66;5025035;28;20508;-79